sensor_id;sensor_type;location;lat;lon;timestamp;P1;durP1;ratioP1;P2;durP2;ratioP2
39094;SDS011;24840;47.508;19.376;2024-03-22T00:01:51;20.00;;;11.43;;
39094;SDS011;24840;47.508;19.376;2024-03-22T00:04:17;12.70;;;8.90;;
39094;SDS011;24840;47.508;19.376;2024-03-22T00:06:45;16.17;;;9.50;;
39094;SDS011;24840;47.508;19.376;2024-03-22T00:09:11;13.87;;;8.70;;
39094;SDS011;24840;47.508;19.376;2024-03-22T00:11:39;14.13;;;9.67;;
39094;SDS011;24840;47.508;19.376;2024-03-22T00:14:05;14.07;;;9.70;;
39094;SDS011;24840;47.508;19.376;2024-03-22T00:16:32;16.60;;;9.93;;
39094;SDS011;24840;47.508;19.376;2024-03-22T00:18:58;18.80;;;12.30;;
39094;SDS011;24840;47.508;19.376;2024-03-22T00:21:24;19.13;;;11.33;;
39094;SDS011;24840;47.508;19.376;2024-03-22T00:23:50;23.50;;;13.13;;
39094;SDS011;24840;47.508;19.376;2024-03-22T00:26:16;22.50;;;13.10;;
39094;SDS011;24840;47.508;19.376;2024-03-22T00:28:42;25.70;;;14.50;;
39094;SDS011;24840;47.508;19.376;2024-03-22T00:31:08;18.70;;;10.80;;
39094;SDS011;24840;47.508;19.376;2024-03-22T00:33:34;15.90;;;10.60;;
39094;SDS011;24840;47.508;19.376;2024-03-22T00:36:00;15.33;;;10.30;;
39094;SDS011;24840;47.508;19.376;2024-03-22T00:38:26;14.70;;;9.73;;
39094;SDS011;24840;47.508;19.376;2024-03-22T00:40:52;16.60;;;9.97;;
39094;SDS011;24840;47.508;19.376;2024-03-22T00:43:19;16.53;;;9.53;;
39094;SDS011;24840;47.508;19.376;2024-03-22T00:45:45;12.97;;;8.77;;
39094;SDS011;24840;47.508;19.376;2024-03-22T00:48:11;12.80;;;8.47;;
39094;SDS011;24840;47.508;19.376;2024-03-22T00:50:37;14.57;;;9.77;;
39094;SDS011;24840;47.508;19.376;2024-03-22T00:53:03;15.03;;;10.20;;
39094;SDS011;24840;47.508;19.376;2024-03-22T00:55:30;15.80;;;9.90;;
39094;SDS011;24840;47.508;19.376;2024-03-22T00:57:56;13.43;;;10.07;;
39094;SDS011;24840;47.508;19.376;2024-03-22T01:00:22;14.43;;;9.73;;
39094;SDS011;24840;47.508;19.376;2024-03-22T01:02:49;17.57;;;10.93;;
39094;SDS011;24840;47.508;19.376;2024-03-22T01:05:15;13.10;;;9.03;;
39094;SDS011;24840;47.508;19.376;2024-03-22T01:07:41;14.63;;;9.43;;
39094;SDS011;24840;47.508;19.376;2024-03-22T01:10:07;17.67;;;9.90;;
39094;SDS011;24840;47.508;19.376;2024-03-22T01:12:33;17.20;;;10.43;;
39094;SDS011;24840;47.508;19.376;2024-03-22T01:15:00;15.37;;;9.87;;
39094;SDS011;24840;47.508;19.376;2024-03-22T01:17:26;18.33;;;10.17;;
39094;SDS011;24840;47.508;19.376;2024-03-22T01:19:52;14.23;;;10.10;;
39094;SDS011;24840;47.508;19.376;2024-03-22T01:22:18;14.83;;;9.50;;
39094;SDS011;24840;47.508;19.376;2024-03-22T01:24:44;13.63;;;9.90;;
39094;SDS011;24840;47.508;19.376;2024-03-22T01:27:11;17.03;;;9.93;;
39094;SDS011;24840;47.508;19.376;2024-03-22T01:29:36;24.80;;;11.10;;
39094;SDS011;24840;47.508;19.376;2024-03-22T01:32:03;16.17;;;10.30;;
39094;SDS011;24840;47.508;19.376;2024-03-22T01:34:29;17.17;;;10.93;;
39094;SDS011;24840;47.508;19.376;2024-03-22T01:36:55;19.30;;;11.50;;
39094;SDS011;24840;47.508;19.376;2024-03-22T01:39:21;17.77;;;10.23;;
39094;SDS011;24840;47.508;19.376;2024-03-22T01:41:48;19.47;;;11.03;;
39094;SDS011;24840;47.508;19.376;2024-03-22T01:44:14;14.27;;;10.20;;
39094;SDS011;24840;47.508;19.376;2024-03-22T01:46:40;20.67;;;9.77;;
39094;SDS011;24840;47.508;19.376;2024-03-22T01:49:11;16.93;;;10.27;;
39094;SDS011;24840;47.508;19.376;2024-03-22T01:51:41;15.43;;;11.17;;
39094;SDS011;24840;47.508;19.376;2024-03-22T01:54:08;16.50;;;10.13;;
39094;SDS011;24840;47.508;19.376;2024-03-22T01:56:38;20.00;;;10.17;;
39094;SDS011;24840;47.508;19.376;2024-03-22T01:59:04;16.00;;;9.67;;
39094;SDS011;24840;47.508;19.376;2024-03-22T02:01:30;19.07;;;10.60;;
39094;SDS011;24840;47.508;19.376;2024-03-22T02:03:57;18.30;;;10.73;;
39094;SDS011;24840;47.508;19.376;2024-03-22T02:06:23;17.40;;;10.83;;
39094;SDS011;24840;47.508;19.376;2024-03-22T02:08:49;15.60;;;9.87;;
39094;SDS011;24840;47.508;19.376;2024-03-22T02:11:15;15.23;;;9.33;;
39094;SDS011;24840;47.508;19.376;2024-03-22T02:13:41;15.37;;;10.67;;
39094;SDS011;24840;47.508;19.376;2024-03-22T02:16:08;17.50;;;10.33;;
39094;SDS011;24840;47.508;19.376;2024-03-22T02:18:34;14.00;;;9.10;;
39094;SDS011;24840;47.508;19.376;2024-03-22T02:21:00;15.73;;;10.00;;
39094;SDS011;24840;47.508;19.376;2024-03-22T02:23:35;15.70;;;9.63;;
39094;SDS011;24840;47.508;19.376;2024-03-22T02:26:02;15.47;;;9.73;;
39094;SDS011;24840;47.508;19.376;2024-03-22T02:28:29;16.90;;;10.00;;
39094;SDS011;24840;47.508;19.376;2024-03-22T02:30:57;14.47;;;9.67;;
39094;SDS011;24840;47.508;19.376;2024-03-22T02:33:23;14.60;;;9.93;;
39094;SDS011;24840;47.508;19.376;2024-03-22T02:35:49;14.17;;;9.97;;
39094;SDS011;24840;47.508;19.376;2024-03-22T02:38:16;14.83;;;9.40;;
39094;SDS011;24840;47.508;19.376;2024-03-22T02:40:43;17.47;;;10.70;;
39094;SDS011;24840;47.508;19.376;2024-03-22T02:43:09;16.30;;;9.93;;
39094;SDS011;24840;47.508;19.376;2024-03-22T02:45:35;13.87;;;9.47;;
39094;SDS011;24840;47.508;19.376;2024-03-22T02:48:01;15.60;;;9.23;;
39094;SDS011;24840;47.508;19.376;2024-03-22T02:50:27;15.30;;;9.90;;
39094;SDS011;24840;47.508;19.376;2024-03-22T02:52:53;13.37;;;9.03;;
39094;SDS011;24840;47.508;19.376;2024-03-22T02:55:19;14.07;;;9.73;;
39094;SDS011;24840;47.508;19.376;2024-03-22T02:57:45;13.30;;;9.37;;
39094;SDS011;24840;47.508;19.376;2024-03-22T03:00:11;11.53;;;9.63;;
39094;SDS011;24840;47.508;19.376;2024-03-22T03:02:37;16.07;;;10.13;;
39094;SDS011;24840;47.508;19.376;2024-03-22T03:05:03;12.10;;;8.70;;
39094;SDS011;24840;47.508;19.376;2024-03-22T03:07:29;14.00;;;9.07;;
39094;SDS011;24840;47.508;19.376;2024-03-22T03:09:55;14.73;;;8.67;;
39094;SDS011;24840;47.508;19.376;2024-03-22T03:12:21;14.10;;;9.70;;
39094;SDS011;24840;47.508;19.376;2024-03-22T03:14:47;17.20;;;10.90;;
39094;SDS011;24840;47.508;19.376;2024-03-22T03:17:13;17.43;;;10.37;;
39094;SDS011;24840;47.508;19.376;2024-03-22T03:19:39;13.57;;;10.10;;
39094;SDS011;24840;47.508;19.376;2024-03-22T03:22:05;24.47;;;10.93;;
39094;SDS011;24840;47.508;19.376;2024-03-22T03:24:31;31.17;;;10.77;;
39094;SDS011;24840;47.508;19.376;2024-03-22T03:26:57;15.47;;;10.30;;
39094;SDS011;24840;47.508;19.376;2024-03-22T03:29:23;17.47;;;10.90;;
39094;SDS011;24840;47.508;19.376;2024-03-22T03:31:49;16.70;;;9.93;;
39094;SDS011;24840;47.508;19.376;2024-03-22T03:34:15;14.57;;;9.83;;
39094;SDS011;24840;47.508;19.376;2024-03-22T03:36:41;18.60;;;11.20;;
39094;SDS011;24840;47.508;19.376;2024-03-22T03:39:07;16.57;;;10.53;;
39094;SDS011;24840;47.508;19.376;2024-03-22T03:41:34;19.93;;;11.73;;
39094;SDS011;24840;47.508;19.376;2024-03-22T03:44:00;24.63;;;11.63;;
39094;SDS011;24840;47.508;19.376;2024-03-22T03:46:26;18.03;;;11.67;;
39094;SDS011;24840;47.508;19.376;2024-03-22T03:48:52;13.83;;;10.03;;
39094;SDS011;24840;47.508;19.376;2024-03-22T03:51:18;16.17;;;11.03;;
39094;SDS011;24840;47.508;19.376;2024-03-22T03:53:44;17.27;;;11.60;;
39094;SDS011;24840;47.508;19.376;2024-03-22T03:56:10;16.87;;;10.17;;
39094;SDS011;24840;47.508;19.376;2024-03-22T03:58:36;22.67;;;12.43;;
39094;SDS011;24840;47.508;19.376;2024-03-22T04:01:08;17.73;;;10.30;;
39094;SDS011;24840;47.508;19.376;2024-03-22T04:03:34;23.07;;;11.70;;
39094;SDS011;24840;47.508;19.376;2024-03-22T04:06:01;21.80;;;11.53;;
39094;SDS011;24840;47.508;19.376;2024-03-22T04:08:27;17.03;;;11.30;;
39094;SDS011;24840;47.508;19.376;2024-03-22T04:10:56;21.70;;;10.97;;
39094;SDS011;24840;47.508;19.376;2024-03-22T04:13:25;16.43;;;11.13;;
39094;SDS011;24840;47.508;19.376;2024-03-22T04:15:51;17.67;;;11.90;;
39094;SDS011;24840;47.508;19.376;2024-03-22T04:18:17;18.83;;;11.53;;
39094;SDS011;24840;47.508;19.376;2024-03-22T04:20:52;18.40;;;11.03;;
39094;SDS011;24840;47.508;19.376;2024-03-22T04:23:18;20.17;;;11.37;;
39094;SDS011;24840;47.508;19.376;2024-03-22T04:25:51;15.17;;;10.47;;
39094;SDS011;24840;47.508;19.376;2024-03-22T04:28:17;17.60;;;9.67;;
39094;SDS011;24840;47.508;19.376;2024-03-22T04:30:43;14.87;;;10.53;;
39094;SDS011;24840;47.508;19.376;2024-03-22T04:33:09;31.87;;;12.40;;
39094;SDS011;24840;47.508;19.376;2024-03-22T04:35:35;36.33;;;11.40;;
39094;SDS011;24840;47.508;19.376;2024-03-22T04:38:01;34.03;;;13.00;;
39094;SDS011;24840;47.508;19.376;2024-03-22T04:40:28;31.00;;;14.57;;
39094;SDS011;24840;47.508;19.376;2024-03-22T04:42:55;33.53;;;13.20;;
39094;SDS011;24840;47.508;19.376;2024-03-22T04:45:21;35.73;;;13.10;;
39094;SDS011;24840;47.508;19.376;2024-03-22T04:47:47;24.60;;;12.37;;
39094;SDS011;24840;47.508;19.376;2024-03-22T04:50:13;26.60;;;11.67;;
39094;SDS011;24840;47.508;19.376;2024-03-22T04:52:39;30.90;;;11.50;;
39094;SDS011;24840;47.508;19.376;2024-03-22T04:55:06;26.63;;;11.30;;
39094;SDS011;24840;47.508;19.376;2024-03-22T04:57:32;20.77;;;11.73;;
39094;SDS011;24840;47.508;19.376;2024-03-22T04:59:58;33.17;;;10.33;;
39094;SDS011;24840;47.508;19.376;2024-03-22T05:02:24;18.63;;;11.77;;
39094;SDS011;24840;47.508;19.376;2024-03-22T05:04:50;20.27;;;11.53;;
39094;SDS011;24840;47.508;19.376;2024-03-22T05:07:16;16.77;;;9.33;;
39094;SDS011;24840;47.508;19.376;2024-03-22T05:09:42;13.33;;;9.10;;
39094;SDS011;24840;47.508;19.376;2024-03-22T05:12:08;11.43;;;8.37;;
39094;SDS011;24840;47.508;19.376;2024-03-22T05:14:34;12.60;;;9.37;;
39094;SDS011;24840;47.508;19.376;2024-03-22T05:17:00;19.17;;;10.67;;
39094;SDS011;24840;47.508;19.376;2024-03-22T05:19:26;23.53;;;10.33;;
39094;SDS011;24840;47.508;19.376;2024-03-22T05:21:52;24.63;;;13.70;;
39094;SDS011;24840;47.508;19.376;2024-03-22T05:24:18;22.73;;;13.07;;
39094;SDS011;24840;47.508;19.376;2024-03-22T05:26:44;17.53;;;12.70;;
39094;SDS011;24840;47.508;19.376;2024-03-22T05:29:10;27.63;;;15.27;;
39094;SDS011;24840;47.508;19.376;2024-03-22T05:31:49;25.63;;;13.53;;
39094;SDS011;24840;47.508;19.376;2024-03-22T05:34:17;19.30;;;10.73;;
39094;SDS011;24840;47.508;19.376;2024-03-22T05:36:43;20.50;;;11.47;;
39094;SDS011;24840;47.508;19.376;2024-03-22T05:39:09;21.43;;;11.43;;
39094;SDS011;24840;47.508;19.376;2024-03-22T05:41:38;21.37;;;12.20;;
39094;SDS011;24840;47.508;19.376;2024-03-22T05:44:04;28.70;;;12.60;;
39094;SDS011;24840;47.508;19.376;2024-03-22T05:46:30;26.90;;;12.57;;
39094;SDS011;24840;47.508;19.376;2024-03-22T05:48:59;24.13;;;12.47;;
39094;SDS011;24840;47.508;19.376;2024-03-22T05:51:26;42.40;;;14.33;;
39094;SDS011;24840;47.508;19.376;2024-03-22T05:53:52;30.37;;;13.43;;
39094;SDS011;24840;47.508;19.376;2024-03-22T05:56:18;23.83;;;12.43;;
39094;SDS011;24840;47.508;19.376;2024-03-22T05:58:44;22.63;;;12.63;;
39094;SDS011;24840;47.508;19.376;2024-03-22T06:01:10;20.33;;;11.80;;
39094;SDS011;24840;47.508;19.376;2024-03-22T06:03:36;18.13;;;11.83;;
39094;SDS011;24840;47.508;19.376;2024-03-22T06:06:02;16.00;;;10.67;;
39094;SDS011;24840;47.508;19.376;2024-03-22T06:08:28;20.23;;;12.40;;
39094;SDS011;24840;47.508;19.376;2024-03-22T06:10:56;22.43;;;11.73;;
39094;SDS011;24840;47.508;19.376;2024-03-22T06:13:22;21.83;;;12.27;;
39094;SDS011;24840;47.508;19.376;2024-03-22T06:15:49;17.87;;;12.23;;
39094;SDS011;24840;47.508;19.376;2024-03-22T06:18:15;21.50;;;12.73;;
39094;SDS011;24840;47.508;19.376;2024-03-22T06:20:41;23.90;;;13.23;;
39094;SDS011;24840;47.508;19.376;2024-03-22T06:23:07;20.50;;;13.53;;
39094;SDS011;24840;47.508;19.376;2024-03-22T06:25:33;31.53;;;14.77;;
39094;SDS011;24840;47.508;19.376;2024-03-22T06:27:59;30.07;;;13.60;;
39094;SDS011;24840;47.508;19.376;2024-03-22T06:30:25;20.30;;;13.83;;
39094;SDS011;24840;47.508;19.376;2024-03-22T06:32:52;25.10;;;15.03;;
39094;SDS011;24840;47.508;19.376;2024-03-22T06:35:19;25.48;;;16.70;;
39094;SDS011;24840;47.508;19.376;2024-03-22T06:37:45;24.47;;;17.07;;
39094;SDS011;24840;47.508;19.376;2024-03-22T06:40:13;26.25;;;15.63;;
39094;SDS011;24840;47.508;19.376;2024-03-22T06:42:39;26.55;;;17.48;;
39094;SDS011;24840;47.508;19.376;2024-03-22T06:45:05;25.63;;;17.50;;
39094;SDS011;24840;47.508;19.376;2024-03-22T06:47:31;26.63;;;17.67;;
39094;SDS011;24840;47.508;19.376;2024-03-22T06:49:57;23.95;;;18.30;;
39094;SDS011;24840;47.508;19.376;2024-03-22T06:52:23;28.88;;;18.38;;
39094;SDS011;24840;47.508;19.376;2024-03-22T06:54:49;24.95;;;16.65;;
39094;SDS011;24840;47.508;19.376;2024-03-22T06:57:16;33.95;;;19.13;;
39094;SDS011;24840;47.508;19.376;2024-03-22T06:59:42;24.13;;;15.65;;
39094;SDS011;24840;47.508;19.376;2024-03-22T07:02:08;24.23;;;15.98;;
39094;SDS011;24840;47.508;19.376;2024-03-22T07:04:34;24.13;;;15.82;;
39094;SDS011;24840;47.508;19.376;2024-03-22T07:07:00;45.47;;;16.92;;
39094;SDS011;24840;47.508;19.376;2024-03-22T07:09:26;24.08;;;15.18;;
39094;SDS011;24840;47.508;19.376;2024-03-22T07:11:54;22.08;;;15.25;;
39094;SDS011;24840;47.508;19.376;2024-03-22T07:14:20;24.30;;;15.82;;
39094;SDS011;24840;47.508;19.376;2024-03-22T07:16:49;29.95;;;16.70;;
39094;SDS011;24840;47.508;19.376;2024-03-22T07:19:15;28.20;;;14.18;;
39094;SDS011;24840;47.508;19.376;2024-03-22T07:21:41;23.50;;;14.27;;
39094;SDS011;24840;47.508;19.376;2024-03-22T07:24:07;26.15;;;15.88;;
39094;SDS011;24840;47.508;19.376;2024-03-22T07:26:33;24.90;;;16.35;;
39094;SDS011;24840;47.508;19.376;2024-03-22T07:28:59;37.90;;;16.67;;
39094;SDS011;24840;47.508;19.376;2024-03-22T07:31:26;24.00;;;14.75;;
39094;SDS011;24840;47.508;19.376;2024-03-22T07:33:53;22.88;;;15.88;;
39094;SDS011;24840;47.508;19.376;2024-03-22T07:36:19;29.38;;;15.55;;
39094;SDS011;24840;47.508;19.376;2024-03-22T07:38:45;25.90;;;17.15;;
39094;SDS011;24840;47.508;19.376;2024-03-22T07:41:11;28.42;;;15.73;;
39094;SDS011;24840;47.508;19.376;2024-03-22T07:43:37;27.20;;;16.08;;
39094;SDS011;24840;47.508;19.376;2024-03-22T07:46:03;26.73;;;15.65;;
39094;SDS011;24840;47.508;19.376;2024-03-22T07:48:29;28.80;;;15.60;;
39094;SDS011;24840;47.508;19.376;2024-03-22T07:50:56;25.42;;;15.18;;
39094;SDS011;24840;47.508;19.376;2024-03-22T07:53:22;22.20;;;15.50;;
39094;SDS011;24840;47.508;19.376;2024-03-22T07:55:48;27.60;;;14.75;;
39094;SDS011;24840;47.508;19.376;2024-03-22T07:58:14;25.45;;;15.18;;
39094;SDS011;24840;47.508;19.376;2024-03-22T08:00:40;26.00;;;15.13;;
39094;SDS011;24840;47.508;19.376;2024-03-22T08:03:06;26.30;;;14.52;;
39094;SDS011;24840;47.508;19.376;2024-03-22T08:05:32;21.42;;;14.40;;
39094;SDS011;24840;47.508;19.376;2024-03-22T08:07:58;28.33;;;13.25;;
39094;SDS011;24840;47.508;19.376;2024-03-22T08:10:24;25.15;;;15.77;;
39094;SDS011;24840;47.508;19.376;2024-03-22T08:12:50;33.58;;;15.63;;
39094;SDS011;24840;47.508;19.376;2024-03-22T08:15:17;26.23;;;15.82;;
39094;SDS011;24840;47.508;19.376;2024-03-22T08:17:43;34.22;;;14.73;;
39094;SDS011;24840;47.508;19.376;2024-03-22T08:20:10;23.52;;;13.43;;
39094;SDS011;24840;47.508;19.376;2024-03-22T08:22:36;30.02;;;15.23;;
39094;SDS011;24840;47.508;19.376;2024-03-22T08:25:02;24.38;;;16.92;;
39094;SDS011;24840;47.508;19.376;2024-03-22T08:27:29;27.80;;;16.13;;
39094;SDS011;24840;47.508;19.376;2024-03-22T08:29:55;20.13;;;14.88;;
39094;SDS011;24840;47.508;19.376;2024-03-22T08:32:21;30.35;;;18.15;;
39094;SDS011;24840;47.508;19.376;2024-03-22T08:34:47;28.85;;;17.33;;
39094;SDS011;24840;47.508;19.376;2024-03-22T08:37:13;22.42;;;15.25;;
39094;SDS011;24840;47.508;19.376;2024-03-22T08:39:39;32.50;;;21.13;;
39094;SDS011;24840;47.508;19.376;2024-03-22T08:42:05;32.80;;;18.35;;
39094;SDS011;24840;47.508;19.376;2024-03-22T08:44:31;26.55;;;16.75;;
39094;SDS011;24840;47.508;19.376;2024-03-22T08:46:57;25.80;;;15.02;;
39094;SDS011;24840;47.508;19.376;2024-03-22T08:49:23;26.55;;;15.30;;
39094;SDS011;24840;47.508;19.376;2024-03-22T08:51:49;18.50;;;14.40;;
39094;SDS011;24840;47.508;19.376;2024-03-22T08:54:15;25.58;;;16.00;;
39094;SDS011;24840;47.508;19.376;2024-03-22T08:56:41;19.98;;;14.93;;
39094;SDS011;24840;47.508;19.376;2024-03-22T08:59:07;19.95;;;14.27;;
39094;SDS011;24840;47.508;19.376;2024-03-22T09:01:33;22.13;;;15.15;;
39094;SDS011;24840;47.508;19.376;2024-03-22T09:04:00;32.35;;;20.05;;
39094;SDS011;24840;47.508;19.376;2024-03-22T09:06:26;39.58;;;24.25;;
39094;SDS011;24840;47.508;19.376;2024-03-22T09:08:52;22.75;;;15.88;;
39094;SDS011;24840;47.508;19.376;2024-03-22T09:11:22;24.23;;;14.82;;
39094;SDS011;24840;47.508;19.376;2024-03-22T09:13:50;18.85;;;13.95;;
39094;SDS011;24840;47.508;19.376;2024-03-22T09:16:16;24.83;;;15.63;;
39094;SDS011;24840;47.508;19.376;2024-03-22T09:18:43;26.98;;;14.73;;
39094;SDS011;24840;47.508;19.376;2024-03-22T09:21:09;19.33;;;13.50;;
39094;SDS011;24840;47.508;19.376;2024-03-22T09:23:35;23.25;;;14.55;;
39094;SDS011;24840;47.508;19.376;2024-03-22T09:26:01;27.65;;;15.30;;
39094;SDS011;24840;47.508;19.376;2024-03-22T09:28:27;26.00;;;15.68;;
39094;SDS011;24840;47.508;19.376;2024-03-22T09:30:53;20.27;;;12.90;;
39094;SDS011;24840;47.508;19.376;2024-03-22T09:33:19;22.80;;;14.05;;
39094;SDS011;24840;47.508;19.376;2024-03-22T09:35:45;21.90;;;13.30;;
39094;SDS011;24840;47.508;19.376;2024-03-22T09:38:11;28.05;;;15.13;;
39094;SDS011;24840;47.508;19.376;2024-03-22T09:40:37;18.73;;;12.57;;
39094;SDS011;24840;47.508;19.376;2024-03-22T09:43:07;18.60;;;13.20;;
39094;SDS011;24840;47.508;19.376;2024-03-22T09:45:33;20.38;;;13.65;;
39094;SDS011;24840;47.508;19.376;2024-03-22T09:47:59;20.75;;;13.40;;
39094;SDS011;24840;47.508;19.376;2024-03-22T09:50:26;16.73;;;12.40;;
39094;SDS011;24840;47.508;19.376;2024-03-22T09:52:52;21.65;;;13.15;;
39094;SDS011;24840;47.508;19.376;2024-03-22T09:55:22;18.58;;;12.52;;
39094;SDS011;24840;47.508;19.376;2024-03-22T09:57:48;23.83;;;13.50;;
39094;SDS011;24840;47.508;19.376;2024-03-22T10:00:16;31.98;;;13.18;;
39094;SDS011;24840;47.508;19.376;2024-03-22T10:02:43;17.92;;;11.45;;
39094;SDS011;24840;47.508;19.376;2024-03-22T10:05:09;20.38;;;10.85;;
39094;SDS011;24840;47.508;19.376;2024-03-22T10:07:35;19.75;;;11.20;;
39094;SDS011;24840;47.508;19.376;2024-03-22T10:10:01;16.27;;;11.20;;
39094;SDS011;24840;47.508;19.376;2024-03-22T10:12:28;17.85;;;11.80;;
39094;SDS011;24840;47.508;19.376;2024-03-22T10:14:54;24.08;;;10.95;;
39094;SDS011;24840;47.508;19.376;2024-03-22T10:17:21;25.33;;;10.50;;
39094;SDS011;24840;47.508;19.376;2024-03-22T10:19:50;14.32;;;9.63;;
39094;SDS011;24840;47.508;19.376;2024-03-22T10:22:16;13.90;;;9.90;;
39094;SDS011;24840;47.508;19.376;2024-03-22T10:24:42;17.92;;;10.02;;
39094;SDS011;24840;47.508;19.376;2024-03-22T10:27:09;14.57;;;9.45;;
39094;SDS011;24840;47.508;19.376;2024-03-22T10:29:35;15.95;;;8.68;;
39094;SDS011;24840;47.508;19.376;2024-03-22T10:32:01;14.15;;;9.32;;
39094;SDS011;24840;47.508;19.376;2024-03-22T10:34:27;13.27;;;9.05;;
39094;SDS011;24840;47.508;19.376;2024-03-22T10:36:57;13.70;;;8.00;;
39094;SDS011;24840;47.508;19.376;2024-03-22T10:39:26;11.35;;;8.10;;
39094;SDS011;24840;47.508;19.376;2024-03-22T10:41:52;27.02;;;9.75;;
39094;SDS011;24840;47.508;19.376;2024-03-22T10:44:18;19.48;;;8.27;;
39094;SDS011;24840;47.508;19.376;2024-03-22T10:46:48;10.82;;;7.50;;
39094;SDS011;24840;47.508;19.376;2024-03-22T10:49:17;13.65;;;7.78;;
39094;SDS011;24840;47.508;19.376;2024-03-22T10:51:46;12.53;;;8.50;;
39094;SDS011;24840;47.508;19.376;2024-03-22T10:54:16;9.63;;;7.75;;
39094;SDS011;24840;47.508;19.376;2024-03-22T10:56:43;9.32;;;6.93;;
39094;SDS011;24840;47.508;19.376;2024-03-22T10:59:12;9.85;;;7.13;;
39094;SDS011;24840;47.508;19.376;2024-03-22T11:01:38;8.07;;;6.05;;
39094;SDS011;24840;47.508;19.376;2024-03-22T11:04:05;17.70;;;8.65;;
39094;SDS011;24840;47.508;19.376;2024-03-22T11:06:31;11.20;;;7.97;;
39094;SDS011;24840;47.508;19.376;2024-03-22T11:09:00;12.23;;;6.93;;
39094;SDS011;24840;47.508;19.376;2024-03-22T11:11:29;7.07;;;5.45;;
39094;SDS011;24840;47.508;19.376;2024-03-22T11:13:56;10.20;;;6.78;;
39094;SDS011;24840;47.508;19.376;2024-03-22T11:16:22;18.83;;;7.50;;
39094;SDS011;24840;47.508;19.376;2024-03-22T11:18:49;12.32;;;8.05;;
39094;SDS011;24840;47.508;19.376;2024-03-22T11:21:15;8.95;;;7.05;;
39094;SDS011;24840;47.508;19.376;2024-03-22T11:23:44;10.05;;;6.55;;
39094;SDS011;24840;47.508;19.376;2024-03-22T11:26:10;10.13;;;7.35;;
39094;SDS011;24840;47.508;19.376;2024-03-22T11:28:41;9.52;;;7.72;;
39094;SDS011;24840;47.508;19.376;2024-03-22T11:31:08;9.77;;;7.38;;
39094;SDS011;24840;47.508;19.376;2024-03-22T11:33:34;10.45;;;7.05;;
39094;SDS011;24840;47.508;19.376;2024-03-22T11:36:03;12.98;;;8.23;;
39094;SDS011;24840;47.508;19.376;2024-03-22T11:38:30;12.90;;;8.82;;
39094;SDS011;24840;47.508;19.376;2024-03-22T11:40:57;11.50;;;7.07;;
39094;SDS011;24840;47.508;19.376;2024-03-22T11:43:24;9.60;;;6.50;;
39094;SDS011;24840;47.508;19.376;2024-03-22T11:45:52;16.50;;;7.32;;
39094;SDS011;24840;47.508;19.376;2024-03-22T11:48:18;11.40;;;6.93;;
39094;SDS011;24840;47.508;19.376;2024-03-22T11:50:45;9.30;;;6.65;;
39094;SDS011;24840;47.508;19.376;2024-03-22T11:53:11;8.70;;;5.63;;
39094;SDS011;24840;47.508;19.376;2024-03-22T11:55:37;9.85;;;7.20;;
39094;SDS011;24840;47.508;19.376;2024-03-22T11:58:03;9.07;;;6.32;;
39094;SDS011;24840;47.508;19.376;2024-03-22T12:00:31;6.68;;;5.55;;
39094;SDS011;24840;47.508;19.376;2024-03-22T12:02:57;6.75;;;5.28;;
39094;SDS011;24840;47.508;19.376;2024-03-22T12:05:23;9.63;;;6.85;;
39094;SDS011;24840;47.508;19.376;2024-03-22T12:07:51;7.15;;;5.15;;
39094;SDS011;24840;47.508;19.376;2024-03-22T12:10:17;8.82;;;4.22;;
39094;SDS011;24840;47.508;19.376;2024-03-22T12:12:43;12.18;;;7.05;;
39094;SDS011;24840;47.508;19.376;2024-03-22T12:15:09;11.50;;;7.82;;
39094;SDS011;24840;47.508;19.376;2024-03-22T12:17:36;12.00;;;7.65;;
39094;SDS011;24840;47.508;19.376;2024-03-22T12:20:04;12.95;;;7.95;;
39094;SDS011;24840;47.508;19.376;2024-03-22T12:22:30;14.90;;;8.80;;
39094;SDS011;24840;47.508;19.376;2024-03-22T12:24:56;11.30;;;8.00;;
39094;SDS011;24840;47.508;19.376;2024-03-22T12:27:24;14.60;;;7.30;;
39094;SDS011;24840;47.508;19.376;2024-03-22T12:29:50;9.55;;;7.00;;
39094;SDS011;24840;47.508;19.376;2024-03-22T12:32:16;11.35;;;7.53;;
39094;SDS011;24840;47.508;19.376;2024-03-22T12:34:42;12.48;;;8.32;;
39094;SDS011;24840;47.508;19.376;2024-03-22T12:37:08;9.68;;;7.80;;
39094;SDS011;24840;47.508;19.376;2024-03-22T12:39:34;11.30;;;6.63;;
39094;SDS011;24840;47.508;19.376;2024-03-22T12:42:02;9.52;;;6.63;;
39094;SDS011;24840;47.508;19.376;2024-03-22T12:44:28;9.80;;;6.60;;
39094;SDS011;24840;47.508;19.376;2024-03-22T12:46:54;12.70;;;6.22;;
39094;SDS011;24840;47.508;19.376;2024-03-22T12:49:21;14.15;;;7.70;;
39094;SDS011;24840;47.508;19.376;2024-03-22T12:51:47;9.18;;;6.05;;
39094;SDS011;24840;47.508;19.376;2024-03-22T12:54:14;11.32;;;6.57;;
39094;SDS011;24840;47.508;19.376;2024-03-22T12:56:43;9.05;;;6.28;;
39094;SDS011;24840;47.508;19.376;2024-03-22T12:59:09;9.02;;;6.15;;
39094;SDS011;24840;47.508;19.376;2024-03-22T13:01:35;10.48;;;6.30;;
39094;SDS011;24840;47.508;19.376;2024-03-22T13:04:02;9.73;;;6.72;;
39094;SDS011;24840;47.508;19.376;2024-03-22T13:06:28;8.77;;;6.90;;
39094;SDS011;24840;47.508;19.376;2024-03-22T13:08:54;10.18;;;7.15;;
39094;SDS011;24840;47.508;19.376;2024-03-22T13:11:20;12.95;;;5.97;;
39094;SDS011;24840;47.508;19.376;2024-03-22T13:13:46;12.10;;;7.07;;
39094;SDS011;24840;47.508;19.376;2024-03-22T13:16:12;11.35;;;6.47;;
39094;SDS011;24840;47.508;19.376;2024-03-22T13:18:40;9.70;;;6.85;;
39094;SDS011;24840;47.508;19.376;2024-03-22T13:21:06;8.82;;;6.70;;
39094;SDS011;24840;47.508;19.376;2024-03-22T13:23:32;8.60;;;6.65;;
39094;SDS011;24840;47.508;19.376;2024-03-22T13:26:02;8.00;;;6.50;;
39094;SDS011;24840;47.508;19.376;2024-03-22T13:28:28;10.88;;;6.57;;
39094;SDS011;24840;47.508;19.376;2024-03-22T13:31:03;10.95;;;8.27;;
39094;SDS011;24840;47.508;19.376;2024-03-22T13:33:35;9.70;;;7.55;;
39094;SDS011;24840;47.508;19.376;2024-03-22T13:36:01;8.82;;;7.35;;
39094;SDS011;24840;47.508;19.376;2024-03-22T13:38:28;11.43;;;8.27;;
39094;SDS011;24840;47.508;19.376;2024-03-22T13:40:55;12.00;;;7.10;;
39094;SDS011;24840;47.508;19.376;2024-03-22T13:43:21;8.45;;;6.18;;
39094;SDS011;24840;47.508;19.376;2024-03-22T13:45:48;18.08;;;6.55;;
39094;SDS011;24840;47.508;19.376;2024-03-22T13:48:14;15.15;;;6.35;;
39094;SDS011;24840;47.508;19.376;2024-03-22T13:50:40;7.72;;;5.57;;
39094;SDS011;24840;47.508;19.376;2024-03-22T13:53:06;9.10;;;6.88;;
39094;SDS011;24840;47.508;19.376;2024-03-22T13:55:33;9.10;;;6.20;;
39094;SDS011;24840;47.508;19.376;2024-03-22T13:57:59;13.88;;;7.38;;
39094;SDS011;24840;47.508;19.376;2024-03-22T14:00:26;13.60;;;7.60;;
39094;SDS011;24840;47.508;19.376;2024-03-22T14:02:52;12.55;;;7.53;;
39094;SDS011;24840;47.508;19.376;2024-03-22T14:05:20;11.30;;;6.47;;
39094;SDS011;24840;47.508;19.376;2024-03-22T14:07:46;8.77;;;6.95;;
39094;SDS011;24840;47.508;19.376;2024-03-22T14:10:12;8.07;;;6.43;;
39094;SDS011;24840;47.508;19.376;2024-03-22T14:12:41;10.35;;;6.90;;